Hovedside
METAR-TAF:

METAR-TAF

Lufthavner :

Ängelholm-Helsingborg lufthavn

Helsingborg, Sverige

breddegrad: 56-17-46N, lengdegrad: 012-50-50E, høyde over havet: 21 m

Gjeldene værobservasjon

Denne rapporten ble laget for 37 minutter siden, klokken 10:50 UTC
Vind 14 kt fra Vest
Temperatur 16°C
Luftfuktighet 68%
Trykk 1013 hPa
Sikt 10 km eller mer
Spredte skyer i en høyde av 1900 ft
Brutte skyer i en høyde av 3200 ft

METAR: ESTA 191050Z 28014KT 9999 SCT019 BKN032 16/10 Q1013

Tid: 13:27 (11:27 UTC)

Varsel

Denne rapporten ble laget for 3 timer og 23 minutter siden, klokken 08:04 UTC
Varsel gyldig fra 19. klokken 09 UTC til 19. klokken 18 UTC
Vind 14 kt fra Vest
Sikt 10 km eller mer
Brutte skyer i en høyde av 3000 ft

TAF: ESTA 190804Z 1909/1918 28014KT 9999 BKN030

Værobservasjoner og værvarsel for over 4000 flyplasser (METAR- og TAF-rapporter).

Tilgjengelige stasjoner er representert av de røde og gule prikkene på kartet.

Hold musepekeren over prikken for å se navnet på stasjonen.

Klikk så for å se værobservasjoner og -varsler.

For å forandre kartet kan du klikke på den grønne knappen med svart kryss for å zoome inn, på den grønne knappen med strek for å zoome ut, eller på de grønne pilene for å se tilstøtende kart.


METAR-TAF: